Adel, Georgia
Current Conditions -  °F | °C
As of 3:58 AM on Saturday 20 Dec 2014 (Local Time) from KVAD Reporting Station
Overcast Overcast  
Wind Chill: 48°   Ceiling: 4600
Heat Index: 50°   Visibility: 10mi
Dew Point: 47°   Wind: 5mph
Humidity: 91%   Direction: 60°ENE
Pressure: 30.1"   Gusts: NA
Location:  31.14°N, 83.42°W
Report Text: KVAD 200858Z AUTO 06004KT 10SM BKN046 OVC095 10/08 A3010 RMK AO2 SLP195 60001 T00980084 58006 $
Loading
Personal Weather Stations






























Interactive Weather Map New forecast layout! Learn more

10-Day Weather Forecast

Advertisements
Track Severe Weather on mobile